Layland, Ohio
Current Conditions -  °F | °C
As of 6:36 PM on Saturday 22 Nov 2014 (Local Time) from K4I3 Reporting Station
Broken Clouds Broken Clouds  
Wind Chill: 41°   Ceiling: 7500
Heat Index: 45°   Visibility: 10mi
Dew Point: 36°   Wind: 6mph
Humidity: 71%   Direction: 180°S
Pressure: 30.08"   Gusts: NA
Location:  40.4765°N, 82.0295°W
Report Text: K4I3 222336Z AUTO 18005KT 10SM BKN075 BKN085 07/02 A3008 RMK AO2
Loading
Personal Weather Stations






























Interactive Weather Map New forecast layout! Learn more

10-Day Weather Forecast

Advertisements
Track Severe Weather on mobile